CheckWX is a tool to help pilots better visualize weather data.  It is not intended as a substitute for an official pre-flight weather briefing.

22:27:06 UTC

KRKD TAF
Knox County Regional Airport
Rockland, Maine, USA
KRKD 191739Z 1918/2018 33008G15KT P6SM SKC FM192300 VRB03KT P6SM FEW250

Oct-19@
18:00 UTC

Oct-19 @ 18:00 UTC

Oct-19@
23:00 UTC

Oct-19 @ 23:00 UTC

KRKD 191739Z 1918/2018 33008G15KT P6SM SKC
Wind
  • 330° at 8 KTS
  • {Gusting to 15 KTS
Cloud Levels
  • Clear skies

Oct-19@
23:00 UTC

Oct-19 @ 23:00 UTC

Oct-20@
18:00 UTC

Oct-20 @ 18:00 UTC

FM192300 VRB03KT P6SM FEW250

From

From Standard forecast or significant change

Wind
  • Variable at 3 KTS
Cloud Levels
  • Few at 25,000' AGL